createdAt,value
2022-08-25T00:02:03.016Z,6.22
2022-08-25T00:04:31.388Z,6.63
2022-08-25T00:09:33.238Z,5.70
2022-08-25T00:12:01.860Z,7.28
2022-08-25T00:14:32.013Z,6.57
2022-08-25T00:17:07.606Z,6.43
2022-08-25T00:19:40.259Z,6.40
2022-08-25T00:22:09.528Z,6.13
2022-08-25T00:24:37.697Z,6.28
2022-08-25T00:27:06.420Z,6.40
2022-08-25T00:29:34.724Z,6.38
2022-08-25T00:32:03.119Z,6.35
2022-08-25T00:34:34.275Z,6.68
2022-08-25T00:37:03.178Z,6.50
2022-08-25T00:39:32.492Z,6.35
2022-08-25T00:42:00.794Z,6.93
2022-08-25T00:44:31.542Z,7.00
2022-08-25T00:47:01.712Z,7.15
2022-08-25T00:49:33.320Z,7.07
2022-08-25T00:52:04.642Z,6.95
2022-08-25T00:54:39.060Z,6.85
2022-08-25T00:57:09.712Z,7.03
2022-08-25T00:59:37.949Z,7.07
2022-08-25T01:02:10.264Z,7.00
2022-08-25T01:04:48.755Z,6.75
2022-08-25T01:07:18.862Z,6.68
2022-08-25T01:09:50.971Z,6.95
2022-08-25T01:12:18.914Z,5.78
2022-08-25T01:14:47.665Z,7.68
2022-08-25T01:17:16.190Z,6.45
2022-08-25T01:19:44.194Z,6.88
2022-08-25T01:22:13.472Z,7.07
2022-08-25T01:24:46.515Z,6.88
2022-08-25T01:27:14.574Z,6.97
2022-08-25T01:29:42.640Z,6.38
2022-08-25T01:32:13.236Z,6.95
2022-08-25T01:37:13.464Z,6.90
2022-08-25T01:39:44.123Z,7.32
2022-08-25T01:44:49.793Z,6.35
2022-08-25T01:47:17.769Z,6.35
2022-08-25T01:49:45.853Z,6.10
2022-08-25T01:52:21.297Z,7.03
2022-08-25T01:54:51.030Z,7.25
2022-08-25T01:57:19.109Z,8.00
2022-08-25T01:59:47.600Z,7.07
2022-08-25T02:02:15.595Z,7.28
2022-08-25T02:04:47.804Z,8.10
2022-08-25T02:07:16.914Z,6.68
2022-08-25T02:09:45.271Z,7.07
2022-08-25T02:12:15.512Z,7.05
2022-08-25T02:14:43.638Z,8.00
2022-08-25T02:17:11.568Z,7.15
2022-08-25T02:19:39.509Z,6.85
2022-08-25T02:22:07.670Z,7.25
2022-08-25T02:24:35.990Z,7.32
2022-08-25T02:27:04.151Z,7.18
2022-08-25T02:29:33.983Z,7.45
2022-08-25T02:32:02.571Z,7.72
2022-08-25T02:34:30.571Z,8.40
2022-08-25T02:36:58.928Z,8.50
2022-08-25T02:39:26.866Z,8.95
2022-08-25T02:41:54.896Z,8.25
2022-08-25T02:44:22.987Z,8.63
2022-08-25T02:46:52.442Z,8.45
2022-08-25T02:49:20.408Z,8.57
2022-08-25T02:51:48.353Z,8.25
2022-08-25T02:54:16.362Z,8.15
2022-08-25T02:56:44.346Z,8.05
2022-08-25T02:59:12.881Z,8.02
2022-08-25T03:01:40.932Z,8.25
2022-08-25T03:04:10.184Z,8.23
2022-08-25T03:06:38.283Z,7.80
2022-08-25T03:09:06.358Z,8.40
2022-08-25T03:11:34.518Z,8.13
2022-08-25T03:14:02.448Z,8.93
2022-08-25T03:16:30.412Z,8.65
2022-08-25T03:18:59.450Z,8.23
2022-08-25T03:21:30.969Z,8.18
2022-08-25T03:24:00.041Z,7.80
2022-08-25T03:26:45.622Z,8.30
2022-08-25T03:29:13.980Z,8.57
2022-08-25T03:31:43.827Z,9.38
2022-08-25T03:34:11.796Z,8.70
2022-08-25T03:36:41.333Z,8.40
2022-08-25T03:39:09.580Z,8.63
2022-08-25T03:41:37.969Z,8.55
2022-08-25T03:44:08.053Z,8.88
2022-08-25T03:46:40.090Z,8.25
2022-08-25T03:49:10.198Z,9.77
2022-08-25T03:51:43.480Z,8.27
2022-08-25T03:54:12.552Z,9.45
2022-08-25T03:56:40.935Z,8.50
2022-08-25T03:59:09.937Z,7.88
2022-08-25T04:01:38.129Z,8.88
2022-08-25T04:04:07.650Z,8.80
2022-08-25T04:06:35.996Z,9.27
2022-08-25T04:09:05.378Z,8.52
2022-08-25T04:11:33.388Z,9.50
2022-08-25T04:14:02.421Z,8.80
2022-08-25T04:16:33.118Z,10.07
2022-08-25T04:19:03.131Z,9.70
2022-08-25T04:21:31.820Z,9.88
2022-08-25T04:23:59.752Z,9.30
2022-08-25T04:26:31.586Z,8.90
2022-08-25T04:29:01.107Z,9.80
2022-08-25T04:31:30.192Z,9.10
2022-08-25T04:33:58.747Z,9.32
2022-08-25T04:36:26.636Z,8.48
2022-08-25T04:38:54.528Z,9.73
2022-08-25T04:41:25.455Z,10.02
2022-08-25T04:43:58.028Z,9.13
2022-08-25T04:46:28.036Z,9.40
2022-08-25T04:48:57.705Z,8.57
2022-08-25T04:51:27.736Z,9.82
2022-08-25T04:53:55.722Z,9.18
2022-08-25T04:56:25.293Z,9.35
2022-08-25T04:58:56.128Z,9.13
2022-08-25T05:01:26.468Z,9.02
2022-08-25T05:03:56.894Z,7.68
2022-08-25T05:06:25.079Z,9.10
2022-08-25T05:08:53.667Z,8.85
2022-08-25T05:11:23.647Z,9.07
2022-08-25T05:13:55.252Z,8.52
2022-08-25T05:16:24.925Z,9.00
2022-08-25T05:18:53.497Z,9.57
2022-08-25T05:21:24.558Z,9.20
2022-08-25T05:23:56.734Z,9.90
2022-08-25T05:26:26.264Z,9.05
2022-08-25T05:28:56.388Z,10.00
2022-08-25T05:31:26.499Z,9.80
2022-08-25T05:33:56.326Z,10.07
2022-08-25T05:36:26.348Z,9.65
2022-08-25T05:38:54.669Z,9.48
2022-08-25T05:41:28.423Z,10.25
2022-08-25T05:43:57.926Z,9.40
2022-08-25T05:46:26.228Z,10.18
2022-08-25T05:48:55.201Z,9.75
2022-08-25T05:51:23.107Z,9.23
2022-08-25T05:53:52.259Z,8.98
2022-08-25T05:56:20.781Z,8.90
2022-08-25T05:58:48.785Z,9.60
2022-08-25T06:01:43.516Z,9.75
2022-08-25T06:04:13.854Z,10.90
2022-08-25T06:06:43.746Z,8.98
2022-08-25T06:09:12.214Z,9.68
2022-08-25T06:11:41.333Z,10.05
2022-08-25T06:14:10.431Z,11.02
2022-08-25T06:16:40.235Z,10.70
2022-08-25T06:19:10.021Z,10.73
2022-08-25T06:21:39.473Z,11.38
2022-08-25T06:24:10.038Z,10.82
2022-08-25T06:26:41.402Z,10.13
2022-08-25T06:29:09.291Z,10.80
2022-08-25T06:31:37.397Z,9.95
2022-08-25T06:34:07.163Z,10.45
2022-08-25T06:36:35.465Z,10.27
2022-08-25T06:39:03.377Z,11.15
2022-08-25T06:41:37.104Z,9.63
2022-08-25T06:44:05.721Z,10.10
2022-08-25T06:46:36.297Z,11.57
2022-08-25T06:49:06.942Z,10.27
2022-08-25T06:51:36.771Z,10.85
2022-08-25T06:54:05.716Z,10.90
2022-08-25T06:56:34.128Z,9.73
2022-08-25T06:59:02.535Z,12.40
2022-08-25T07:01:31.818Z,10.93
2022-08-25T07:04:02.060Z,11.20
2022-08-25T07:06:35.410Z,11.75
2022-08-25T07:09:05.944Z,11.10
2022-08-25T07:14:03.205Z,11.38
2022-08-25T07:16:32.629Z,10.25
2022-08-25T07:19:01.606Z,10.35
2022-08-25T07:21:35.793Z,10.93
2022-08-25T07:24:06.662Z,10.50
2022-08-25T07:26:38.564Z,10.60
2022-08-25T07:29:14.001Z,10.90
2022-08-25T07:31:41.949Z,10.73
2022-08-25T07:34:28.578Z,11.10
2022-08-25T07:36:58.615Z,10.60
2022-08-25T07:39:29.085Z,10.40
2022-08-25T07:41:57.729Z,10.40
2022-08-25T07:44:27.855Z,11.00
2022-08-25T07:49:26.129Z,10.10
2022-08-25T07:52:33.499Z,10.02
2022-08-25T07:55:01.809Z,10.23
2022-08-25T07:57:29.862Z,10.55
2022-08-25T07:59:58.749Z,9.77
2022-08-25T08:02:27.440Z,10.63
2022-08-25T08:04:55.335Z,10.23
2022-08-25T08:07:43.262Z,9.90
2022-08-25T08:13:07.144Z,10.27
2022-08-25T08:15:36.044Z,9.73
2022-08-25T08:18:07.146Z,9.10
2022-08-25T08:20:42.650Z,9.38
2022-08-25T08:23:11.577Z,9.35
2022-08-25T08:25:40.836Z,9.30
2022-08-25T08:28:08.962Z,8.80
2022-08-25T08:30:38.917Z,10.23
2022-08-25T08:33:12.059Z,8.80
2022-08-25T08:35:40.537Z,7.85
2022-08-25T08:38:14.552Z,8.82
2022-08-25T08:41:15.299Z,8.32
2022-08-25T08:43:45.655Z,8.57
2022-08-25T08:46:13.698Z,8.07
2022-08-25T08:48:56.559Z,8.27
2022-08-25T08:51:32.921Z,8.02
2022-08-25T08:54:07.304Z,8.32
2022-08-25T08:56:48.772Z,8.50
2022-08-25T08:59:20.079Z,8.00
2022-08-25T09:01:54.427Z,7.88
2022-08-25T09:04:31.225Z,7.43
2022-08-25T09:07:02.341Z,7.47
2022-08-25T09:09:35.624Z,7.00
2022-08-25T09:12:14.643Z,5.78
2022-08-25T09:14:58.363Z,6.32
2022-08-25T09:17:41.612Z,6.13
2022-08-25T09:20:19.813Z,6.00
2022-08-25T09:22:56.375Z,5.38
2022-08-25T09:25:52.603Z,5.95
2022-08-25T09:28:31.173Z,6.07
2022-08-25T09:31:01.229Z,5.40
2022-08-25T09:36:01.900Z,5.40
2022-08-25T09:38:34.810Z,5.20
2022-08-25T09:41:03.315Z,5.72
2022-08-25T09:43:35.427Z,5.72
2022-08-25T09:46:10.537Z,5.50
2022-08-25T09:48:45.508Z,5.55
2022-08-25T09:51:24.213Z,6.07
2022-08-25T09:53:56.732Z,5.20
2022-08-25T09:56:26.735Z,5.07
2022-08-25T09:59:02.425Z,4.80
2022-08-25T10:01:34.546Z,4.63
2022-08-25T10:04:05.882Z,4.20
2022-08-25T10:06:45.490Z,4.10
2022-08-25T10:09:26.607Z,3.95
2022-08-25T10:11:57.439Z,3.88
2022-08-25T10:14:35.140Z,3.28
2022-08-25T10:17:27.574Z,3.63
2022-08-25T10:20:13.005Z,3.30
2022-08-25T10:22:42.683Z,3.40
2022-08-25T10:25:14.034Z,3.30
2022-08-25T10:27:52.692Z,3.70
2022-08-25T10:30:31.311Z,4.07
2022-08-25T10:33:13.535Z,3.65
2022-08-25T10:36:01.722Z,3.50
2022-08-25T10:38:39.209Z,3.85
2022-08-25T10:41:35.897Z,3.67
2022-08-25T10:44:28.676Z,3.05
2022-08-25T10:47:13.262Z,3.53
2022-08-25T10:49:47.332Z,4.15
2022-08-25T10:52:27.934Z,3.40
2022-08-25T10:55:02.437Z,3.47
2022-08-25T10:57:35.798Z,2.95
2022-08-25T11:00:09.315Z,3.10
2022-08-25T11:03:12.543Z,2.85
2022-08-25T11:05:43.914Z,3.40
2022-08-25T11:08:18.136Z,3.50
2022-08-25T11:10:52.289Z,2.53
2022-08-25T11:13:28.007Z,3.13
2022-08-25T11:16:18.723Z,3.53
2022-08-25T11:18:55.234Z,3.75
2022-08-25T11:21:30.036Z,3.33
2022-08-25T11:24:05.868Z,3.00
2022-08-25T11:26:40.631Z,3.20
2022-08-25T11:29:15.965Z,3.35
2022-08-25T11:31:52.713Z,3.13
2022-08-25T11:34:23.498Z,3.50
2022-08-25T11:36:55.113Z,3.53
2022-08-25T11:39:40.432Z,3.33
2022-08-25T11:42:19.245Z,3.53
2022-08-25T11:44:56.165Z,3.63
2022-08-25T11:47:41.196Z,3.63
2022-08-25T11:50:29.856Z,3.47
2022-08-25T11:53:00.860Z,4.00
2022-08-25T11:55:47.484Z,3.58
2022-08-25T11:58:24.841Z,3.50
2022-08-25T12:00:54.350Z,3.88
2022-08-25T12:03:51.036Z,3.97
2022-08-25T12:06:29.428Z,3.88
2022-08-25T12:09:22.231Z,4.18
2022-08-25T12:11:54.627Z,3.97
2022-08-25T12:14:48.066Z,3.97
2022-08-25T12:17:26.177Z,4.15
2022-08-25T12:20:01.101Z,4.15
2022-08-25T12:22:58.564Z,3.85
2022-08-25T12:25:36.371Z,4.05
2022-08-25T12:28:15.399Z,4.43
2022-08-25T12:30:51.519Z,4.78
2022-08-25T12:33:33.887Z,4.20
2022-08-25T12:36:08.470Z,4.40
2022-08-25T12:38:49.537Z,4.50
2022-08-25T12:41:24.265Z,4.60
2022-08-25T12:43:54.467Z,4.15
2022-08-25T12:46:38.541Z,4.03
2022-08-25T12:49:14.263Z,4.10
2022-08-25T12:51:54.391Z,3.92
2022-08-25T12:54:40.319Z,4.65
2022-08-25T12:57:29.570Z,4.40
2022-08-25T13:00:00.666Z,4.10
2022-08-25T13:02:56.301Z,4.72
2022-08-25T13:05:49.759Z,4.60
2022-08-25T13:08:47.360Z,4.10
2022-08-25T13:11:22.526Z,4.32
2022-08-25T13:13:56.302Z,4.32
2022-08-25T13:16:29.296Z,4.65
2022-08-25T13:19:01.511Z,4.75
2022-08-25T13:21:31.740Z,4.03
2022-08-25T13:24:05.290Z,4.40
2022-08-25T13:26:48.139Z,3.92
2022-08-25T13:29:20.094Z,3.80
2022-08-25T13:31:54.848Z,3.80
2022-08-25T13:34:34.324Z,3.80
2022-08-25T13:37:24.971Z,3.28
2022-08-25T13:42:42.481Z,3.03
2022-08-25T13:45:16.457Z,3.25
2022-08-25T13:47:46.133Z,3.03
2022-08-25T13:52:51.145Z,3.25
2022-08-25T13:55:27.596Z,3.20
2022-08-25T13:58:00.137Z,3.63
2022-08-25T14:00:32.721Z,4.32
2022-08-25T14:03:02.656Z,4.72
2022-08-25T14:05:40.431Z,4.50
2022-08-25T14:08:31.782Z,4.47
2022-08-25T14:11:15.079Z,4.00
2022-08-25T14:13:45.583Z,4.60
2022-08-25T14:16:19.387Z,4.25
2022-08-25T14:18:49.401Z,4.30
2022-08-25T14:21:17.539Z,4.47
2022-08-25T14:23:47.210Z,5.38
2022-08-25T14:26:15.279Z,4.35
2022-08-25T14:28:46.392Z,4.85
2022-08-25T14:31:17.365Z,4.82
2022-08-25T14:33:55.290Z,4.30
2022-08-25T14:36:23.311Z,3.95
2022-08-25T14:38:54.895Z,4.72
2022-08-25T14:41:24.716Z,5.10
2022-08-25T14:43:54.481Z,5.50
2022-08-25T14:46:25.686Z,5.28
2022-08-25T14:48:57.530Z,5.20
2022-08-25T14:51:26.830Z,5.70
2022-08-25T14:53:58.673Z,5.65
2022-08-25T14:56:27.694Z,5.75
2022-08-25T14:58:59.570Z,5.15
2022-08-25T15:01:30.134Z,6.10
2022-08-25T15:04:03.155Z,5.53
2022-08-25T15:06:31.606Z,5.63
2022-08-25T15:09:13.683Z,5.50
2022-08-25T15:11:43.829Z,5.80
2022-08-25T15:14:17.498Z,4.93
2022-08-25T15:16:49.312Z,5.13
2022-08-25T15:19:19.451Z,5.35
2022-08-25T15:21:49.587Z,5.47
2022-08-25T15:24:19.536Z,5.53
2022-08-25T15:29:27.972Z,5.25
2022-08-25T15:31:56.109Z,5.38
2022-08-25T15:34:24.155Z,5.32
2022-08-25T15:36:52.318Z,5.78
2022-08-25T15:39:20.520Z,5.22
2022-08-25T15:41:52.213Z,4.83
2022-08-25T15:44:22.674Z,5.13
2022-08-25T15:46:54.666Z,5.32
2022-08-25T15:49:24.366Z,5.50
2022-08-25T15:51:54.376Z,4.90
2022-08-25T15:54:23.848Z,5.32
2022-08-25T15:56:55.279Z,5.40
2022-08-25T15:59:23.244Z,5.13
2022-08-25T16:04:23.417Z,5.50
2022-08-25T16:06:51.882Z,4.90
2022-08-25T16:09:22.895Z,5.30
2022-08-25T16:11:56.157Z,5.32
2022-08-25T16:14:26.210Z,5.40
2022-08-25T16:16:58.332Z,5.05
2022-08-25T16:19:27.936Z,4.43
2022-08-25T16:21:55.833Z,4.78
2022-08-25T16:24:23.725Z,5.15
2022-08-25T16:26:52.348Z,5.03
2022-08-25T16:29:23.756Z,5.40
2022-08-25T16:31:51.605Z,4.95
2022-08-25T16:34:28.585Z,4.57
2022-08-25T16:36:58.801Z,4.95
2022-08-25T16:39:27.184Z,4.93
2022-08-25T16:41:54.995Z,5.20
2022-08-25T16:44:24.362Z,4.80
2022-08-25T16:46:55.284Z,5.70
2022-08-25T16:49:25.510Z,5.32
2022-08-25T16:51:56.646Z,5.15
2022-08-25T16:54:43.901Z,4.47
2022-08-25T16:57:11.919Z,4.70
2022-08-25T16:59:39.775Z,4.72
2022-08-25T17:02:08.439Z,4.70
2022-08-25T17:04:37.636Z,4.85
2022-08-25T17:07:06.188Z,4.80
2022-08-25T17:12:05.540Z,4.65
2022-08-25T17:14:33.549Z,4.80
2022-08-25T17:17:01.467Z,5.00
2022-08-25T17:19:29.290Z,4.72
2022-08-25T17:21:58.847Z,4.82
2022-08-25T17:24:29.398Z,4.57
2022-08-25T17:27:01.412Z,4.85
2022-08-25T17:29:30.053Z,5.40
2022-08-25T17:31:58.533Z,4.55
2022-08-25T17:34:27.568Z,4.97
2022-08-25T17:36:56.000Z,4.90
2022-08-25T17:39:26.572Z,4.78
2022-08-25T17:41:54.693Z,4.70
2022-08-25T17:44:22.661Z,5.10
2022-08-25T17:46:50.779Z,4.47
2022-08-25T17:49:19.852Z,4.82
2022-08-25T17:51:47.724Z,4.68
2022-08-25T17:54:15.848Z,4.82
2022-08-25T17:56:45.310Z,4.82
2022-08-25T17:59:13.918Z,5.13
2022-08-25T18:01:42.189Z,4.72
2022-08-25T18:04:17.005Z,5.10
2022-08-25T18:06:46.866Z,5.18
2022-08-25T18:09:14.830Z,4.90
2022-08-25T18:11:42.943Z,4.70
2022-08-25T18:14:13.833Z,5.20
2022-08-25T18:16:42.246Z,4.88
2022-08-25T18:19:10.791Z,6.22
2022-08-25T18:21:39.124Z,5.32
2022-08-25T18:24:08.374Z,6.00
2022-08-25T18:26:36.344Z,5.43
2022-08-25T18:29:04.316Z,5.35
2022-08-25T18:31:33.969Z,5.78
2022-08-25T18:34:05.011Z,5.35
2022-08-25T18:36:33.614Z,5.60
2022-08-25T18:39:34.844Z,5.20
2022-08-25T18:42:03.891Z,5.75
2022-08-25T18:44:33.417Z,5.72
2022-08-25T18:47:07.434Z,5.75
2022-08-25T18:49:37.079Z,6.03
2022-08-25T18:52:05.957Z,6.00
2022-08-25T18:54:36.082Z,6.18
2022-08-25T18:57:04.590Z,5.90
2022-08-25T18:59:36.139Z,5.38
2022-08-25T19:02:05.674Z,5.40
2022-08-25T19:04:33.939Z,5.80
2022-08-25T19:07:02.107Z,5.40
2022-08-25T19:09:32.182Z,6.22
2022-08-25T19:12:01.428Z,6.05
2022-08-25T19:14:29.648Z,6.18
2022-08-25T19:16:58.767Z,5.80
2022-08-25T19:19:29.053Z,5.55
2022-08-25T19:21:58.149Z,5.35
2022-08-25T19:24:28.277Z,5.38
2022-08-25T19:26:56.873Z,5.43
2022-08-25T19:29:26.245Z,5.60
2022-08-25T19:31:54.282Z,6.50
2022-08-25T19:34:28.013Z,5.70
2022-08-25T19:37:01.780Z,5.88
2022-08-25T19:39:33.190Z,7.30
2022-08-25T19:42:01.247Z,6.28
2022-08-25T19:44:31.471Z,6.15
2022-08-25T19:46:59.751Z,6.50
2022-08-25T19:49:34.485Z,6.18
2022-08-25T19:52:10.422Z,7.70
2022-08-25T19:54:44.149Z,6.57
2022-08-25T19:57:27.803Z,6.78
2022-08-25T19:59:56.988Z,6.45
2022-08-25T20:02:29.573Z,7.07
2022-08-25T20:05:00.353Z,6.80
2022-08-25T20:07:31.730Z,6.88
2022-08-25T20:10:00.521Z,6.75
2022-08-25T20:12:29.504Z,6.88
2022-08-25T20:14:58.378Z,6.57
2022-08-25T20:17:28.520Z,6.63
2022-08-25T20:20:00.023Z,6.72
2022-08-25T20:22:32.522Z,7.90
2022-08-25T20:25:02.352Z,6.47
2022-08-25T20:27:34.809Z,5.95
2022-08-25T20:30:06.236Z,6.70
2022-08-25T20:32:35.690Z,6.68
2022-08-25T20:35:08.919Z,6.05
2022-08-25T20:37:38.884Z,7.07
2022-08-25T20:40:09.222Z,8.35
2022-08-25T20:42:40.525Z,6.10
2022-08-25T20:45:10.384Z,6.80
2022-08-25T20:50:08.667Z,6.05
2022-08-25T20:52:42.407Z,5.93
2022-08-25T20:55:12.736Z,6.68
2022-08-25T20:57:40.909Z,7.85
2022-08-25T21:00:10.736Z,6.57
2022-08-25T21:02:38.641Z,6.30
2022-08-25T21:05:08.779Z,6.40
2022-08-25T21:07:37.979Z,6.93
2022-08-25T21:10:10.514Z,5.82
2022-08-25T21:12:42.557Z,6.90
2022-08-25T21:15:11.881Z,6.60
2022-08-25T21:17:40.497Z,6.80
2022-08-25T21:20:10.120Z,6.72
2022-08-25T21:22:40.706Z,6.93
2022-08-25T21:25:10.177Z,7.20
2022-08-25T21:27:38.013Z,6.40
2022-08-25T21:30:07.635Z,6.05
2022-08-25T21:32:35.514Z,6.40
2022-08-25T21:35:04.040Z,6.65
2022-08-25T21:37:35.861Z,6.25
2022-08-25T21:40:07.003Z,6.38
2022-08-25T21:42:36.778Z,6.90
2022-08-25T21:45:05.665Z,6.35
2022-08-25T21:47:42.269Z,7.57
2022-08-25T21:50:11.823Z,6.90
2022-08-25T21:52:39.916Z,6.72
2022-08-25T21:55:13.639Z,6.25
2022-08-25T21:57:44.140Z,6.13
2022-08-25T22:00:14.329Z,6.78
2022-08-25T22:02:45.841Z,6.07
2022-08-25T22:05:13.861Z,7.18
2022-08-25T22:07:44.074Z,6.97
2022-08-25T22:10:17.850Z,6.35
2022-08-25T22:12:46.887Z,7.40
2022-08-25T22:15:17.852Z,8.10
2022-08-25T22:17:46.216Z,7.22
2022-08-25T22:20:17.159Z,7.57
2022-08-25T22:22:44.992Z,6.72
2022-08-25T22:25:14.724Z,7.20
2022-08-25T22:27:42.763Z,7.15
2022-08-25T22:30:11.941Z,7.22
2022-08-25T22:32:40.017Z,7.05
2022-08-25T22:35:09.551Z,6.38
2022-08-25T22:37:37.692Z,6.75
2022-08-25T22:40:06.413Z,6.90
2022-08-25T22:42:35.897Z,7.05
2022-08-25T22:45:03.805Z,7.03
2022-08-25T22:47:31.890Z,7.32
2022-08-25T22:50:00.223Z,8.13
2022-08-25T22:52:33.682Z,7.07
2022-08-25T22:55:01.842Z,7.80
2022-08-25T22:57:29.868Z,7.78
2022-08-25T22:59:59.580Z,6.80
2022-08-25T23:02:30.358Z,7.07
2022-08-25T23:05:00.813Z,6.47
2022-08-25T23:09:56.688Z,6.45
2022-08-25T23:12:25.373Z,6.60
2022-08-25T23:14:53.305Z,7.80
2022-08-25T23:17:23.160Z,7.00
2022-08-25T23:19:51.119Z,7.93
2022-08-25T23:22:18.229Z,7.57
2022-08-25T23:24:48.200Z,7.55
2022-08-25T23:27:18.175Z,6.88
2022-08-25T23:29:48.774Z,7.63
2022-08-25T23:32:17.709Z,7.85
2022-08-25T23:34:48.100Z,8.07
2022-08-25T23:37:18.720Z,6.40
2022-08-25T23:39:49.844Z,7.45
2022-08-25T23:42:19.430Z,6.93
2022-08-25T23:44:47.843Z,7.78
2022-08-25T23:47:15.741Z,6.95
2022-08-25T23:49:43.639Z,7.47
2022-08-25T23:52:17.092Z,8.18
2022-08-25T23:54:45.441Z,7.82
2022-08-25T23:57:13.314Z,7.43
2022-08-25T23:59:43.188Z,7.57
